sensor_id;sensor_type;location;lat;lon;timestamp;pressure;altitude;pressure_sealevel;temperature;humidity
21664;BME280;10993;52.510;13.456;2022-11-09T00:04:26;-26518.78;;;12.69;88.89
21664;BME280;10993;52.510;13.456;2022-11-09T00:09:26;-26512.84;;;12.49;88.88
21664;BME280;10993;52.510;13.456;2022-11-09T00:14:28;-26513.63;;;12.52;89.53
21664;BME280;10993;52.510;13.456;2022-11-09T00:19:28;-26511.91;;;12.46;89.89
21664;BME280;10993;52.510;13.456;2022-11-09T00:24:28;-26517.06;;;12.63;88.93
21664;BME280;10993;52.510;13.456;2022-11-09T00:29:30;-26513.16;;;12.50;89.81
21664;BME280;10993;52.510;13.456;2022-11-09T00:34:30;-26517.22;;;12.64;89.07
21664;BME280;10993;52.510;13.456;2022-11-09T00:39:31;-26515.81;;;12.59;88.71
21664;BME280;10993;52.510;13.456;2022-11-09T00:44:32;-26517.53;;;12.65;88.41
21664;BME280;10993;52.510;13.456;2022-11-09T00:49:33;-26517.41;;;12.64;88.75
21664;BME280;10993;52.510;13.456;2022-11-09T00:54:33;-26516.59;;;12.62;89.20
21664;BME280;10993;52.510;13.456;2022-11-09T00:59:35;-26516.13;;;12.60;89.24
21664;BME280;10993;52.510;13.456;2022-11-09T01:04:35;-26512.53;;;12.48;89.60
21664;BME280;10993;52.510;13.456;2022-11-09T01:09:35;-26511.59;;;12.45;90.43
21664;BME280;10993;52.510;13.456;2022-11-09T01:14:37;-26511.44;;;12.45;90.39
21664;BME280;10993;52.510;13.456;2022-11-09T01:19:37;-26513.16;;;12.50;90.34
21664;BME280;10993;52.510;13.456;2022-11-09T01:24:38;-26510.97;;;12.43;89.70
21664;BME280;10993;52.510;13.456;2022-11-09T01:29:39;-26511.28;;;12.44;88.87
21664;BME280;10993;52.510;13.456;2022-11-09T01:34:40;-26505.66;;;12.26;89.10
21664;BME280;10993;52.510;13.456;2022-11-09T01:39:40;-26506.59;;;12.29;89.76
21664;BME280;10993;52.510;13.456;2022-11-09T01:44:42;-26503.47;;;12.18;90.08
21664;BME280;10993;52.510;13.456;2022-11-09T01:49:46;-26502.06;;;12.14;90.78
21664;BME280;10993;52.510;13.456;2022-11-09T01:54:51;-26499.72;;;12.06;91.25
21664;BME280;10993;52.510;13.456;2022-11-09T01:59:58;-26498.78;;;12.03;91.25
21664;BME280;10993;52.510;13.456;2022-11-09T02:05:02;-26497.84;;;12.00;91.31
21664;BME280;10993;52.510;13.456;2022-11-09T02:10:09;-26491.88;;;11.80;91.89
21664;BME280;10993;52.510;13.456;2022-11-09T02:15:14;-26492.81;;;11.83;92.56
21664;BME280;10993;52.510;13.456;2022-11-09T02:20:16;-26491.56;;;11.79;92.62
21664;BME280;10993;52.510;13.456;2022-11-09T02:25:17;-26490.00;;;11.74;93.80
21664;BME280;10993;52.510;13.456;2022-11-09T02:30:18;-26483.41;;;11.52;94.54
21664;BME280;10993;52.510;13.456;2022-11-09T02:35:20;-26483.09;;;11.51;95.25
21664;BME280;10993;52.510;13.456;2022-11-09T02:40:22;-26484.97;;;11.58;95.15
21664;BME280;10993;52.510;13.456;2022-11-09T02:45:24;-26479.97;;;11.41;96.36
21664;BME280;10993;52.510;13.456;2022-11-09T02:50:26;-26479.66;;;11.40;96.66
21664;BME280;10993;52.510;13.456;2022-11-09T02:55:27;-26478.88;;;11.38;96.85
21664;BME280;10993;52.510;13.456;2022-11-09T03:00:27;-26469.63;;;11.07;99.60
21664;BME280;10993;52.510;13.456;2022-11-09T03:05:29;-26472.13;;;11.15;99.04
21664;BME280;10993;52.510;13.456;2022-11-09T03:10:29;-26471.34;;;11.13;99.42
21664;BME280;10993;52.510;13.456;2022-11-09T03:15:30;-26466.97;;;10.98;99.87
21664;BME280;10993;52.510;13.456;2022-11-09T03:20:32;-26471.81;;;11.14;99.38
21664;BME280;10993;52.510;13.456;2022-11-09T03:25:32;-26479.66;;;11.40;98.37
21664;BME280;10993;52.510;13.456;2022-11-09T03:30:33;-26483.09;;;11.51;96.29
21664;BME280;10993;52.510;13.456;2022-11-09T03:35:35;-26484.34;;;11.56;96.32
21664;BME280;10993;52.510;13.456;2022-11-09T03:40:36;-26484.81;;;11.57;96.73
21664;BME280;10993;52.510;13.456;2022-11-09T03:45:36;-26491.88;;;11.80;95.67
21664;BME280;10993;52.510;13.456;2022-11-09T03:50:38;-26490.00;;;11.74;94.69
21664;BME280;10993;52.510;13.456;2022-11-09T03:55:39;-26494.69;;;11.90;94.49
21664;BME280;10993;52.510;13.456;2022-11-09T04:00:40;-26500.97;;;12.10;93.14
21664;BME280;10993;52.510;13.456;2022-11-09T04:05:41;-26502.53;;;12.15;91.82
21664;BME280;10993;52.510;13.456;2022-11-09T04:10:41;-26500.66;;;12.09;92.89
21664;BME280;10993;52.510;13.456;2022-11-09T04:15:42;-26493.59;;;11.86;95.63
21664;BME280;10993;52.510;13.456;2022-11-09T04:20:44;-26490.31;;;11.75;97.89
21664;BME280;10993;52.510;13.456;2022-11-09T04:25:44;-26492.81;;;11.83;97.72
21664;BME280;10993;52.510;13.456;2022-11-09T04:30:45;-26494.38;;;11.89;98.30
21664;BME280;10993;52.510;13.456;2022-11-09T04:35:46;-26496.09;;;11.94;98.86
21664;BME280;10993;52.510;13.456;2022-11-09T04:40:47;-26490.63;;;11.76;100.00
21664;BME280;10993;52.510;13.456;2022-11-09T04:45:47;-26486.72;;;11.63;100.00
21664;BME280;10993;52.510;13.456;2022-11-09T04:50:49;-26480.28;;;11.42;100.00
21664;BME280;10993;52.510;13.456;2022-11-09T04:55:49;-26471.97;;;11.15;100.00
21664;BME280;10993;52.510;13.456;2022-11-09T05:00:50;-26471.81;;;11.14;100.00
21664;BME280;10993;52.510;13.456;2022-11-09T05:05:52;-26468.69;;;11.04;100.00
21664;BME280;10993;52.510;13.456;2022-11-09T05:10:55;-26470.88;;;11.11;100.00
21664;BME280;10993;52.510;13.456;2022-11-09T05:15:59;-26470.56;;;11.10;100.00
21664;BME280;10993;52.510;13.456;2022-11-09T05:21:01;-26469.94;;;11.08;100.00
21664;BME280;10993;52.510;13.456;2022-11-09T05:26:02;-26471.66;;;11.14;100.00
21664;BME280;10993;52.510;13.456;2022-11-09T05:31:02;-26469.63;;;11.07;100.00
21664;BME280;10993;52.510;13.456;2022-11-09T05:36:05;-26473.06;;;11.18;100.00
21664;BME280;10993;52.510;13.456;2022-11-09T05:41:05;-26472.59;;;11.17;100.00
21664;BME280;10993;52.510;13.456;2022-11-09T05:46:06;-26473.69;;;11.20;100.00
21664;BME280;10993;52.510;13.456;2022-11-09T05:51:09;-26473.69;;;11.20;100.00
21664;BME280;10993;52.510;13.456;2022-11-09T05:56:11;-26477.63;;;11.33;100.00
21664;BME280;10993;52.510;13.456;2022-11-09T06:01:13;-26470.09;;;11.09;100.00
21664;BME280;10993;52.510;13.456;2022-11-09T06:06:15;-26478.41;;;11.36;100.00
21664;BME280;10993;52.510;13.456;2022-11-09T06:11:17;-26480.44;;;11.43;100.00
21664;BME280;10993;52.510;13.456;2022-11-09T06:16:18;-26481.38;;;11.46;100.00
21664;BME280;10993;52.510;13.456;2022-11-09T06:21:20;-26474.47;;;11.23;100.00
21664;BME280;10993;52.510;13.456;2022-11-09T06:26:20;-26482.78;;;11.50;100.00
21664;BME280;10993;52.510;13.456;2022-11-09T06:31:21;-26484.66;;;11.57;100.00
21664;BME280;10993;52.510;13.456;2022-11-09T06:36:23;-26486.41;;;11.62;100.00
21664;BME280;10993;52.510;13.456;2022-11-09T06:41:23;-26489.22;;;11.72;100.00
21664;BME280;10993;52.510;13.456;2022-11-09T06:46:23;-26488.91;;;11.70;100.00
21664;BME280;10993;52.510;13.456;2022-11-09T06:51:25;-26490.63;;;11.76;100.00
21664;BME280;10993;52.510;13.456;2022-11-09T06:56:26;-26491.41;;;11.79;100.00
21664;BME280;10993;52.510;13.456;2022-11-09T07:01:27;-26491.88;;;11.80;100.00
21664;BME280;10993;52.510;13.456;2022-11-09T07:06:29;-26492.81;;;11.83;100.00
21664;BME280;10993;52.510;13.456;2022-11-09T07:11:29;-26490.63;;;11.76;100.00
21664;BME280;10993;52.510;13.456;2022-11-09T07:16:30;-26488.59;;;11.69;100.00
21664;BME280;10993;52.510;13.456;2022-11-09T07:21:32;-26489.06;;;11.71;100.00
21664;BME280;10993;52.510;13.456;2022-11-09T07:26:32;-26480.59;;;11.43;100.00
21664;BME280;10993;52.510;13.456;2022-11-09T07:31:33;-26478.88;;;11.38;100.00
21664;BME280;10993;52.510;13.456;2022-11-09T07:36:34;-26480.91;;;11.44;100.00
21664;BME280;10993;52.510;13.456;2022-11-09T07:41:36;-26480.59;;;11.43;100.00
21664;BME280;10993;52.510;13.456;2022-11-09T07:46:36;-26481.69;;;11.47;100.00
21664;BME280;10993;52.510;13.456;2022-11-09T07:51:38;-26481.84;;;11.47;100.00
21664;BME280;10993;52.510;13.456;2022-11-09T07:56:38;-26484.03;;;11.55;100.00
21664;BME280;10993;52.510;13.456;2022-11-09T08:01:38;-26485.75;;;11.60;100.00
21664;BME280;10993;52.510;13.456;2022-11-09T08:06:40;-26489.06;;;11.71;100.00
21664;BME280;10993;52.510;13.456;2022-11-09T08:11:41;-26489.38;;;11.72;100.00
21664;BME280;10993;52.510;13.456;2022-11-09T08:16:41;-26493.13;;;11.84;100.00
21664;BME280;10993;52.510;13.456;2022-11-09T08:21:43;-26493.44;;;11.85;100.00
21664;BME280;10993;52.510;13.456;2022-11-09T08:26:43;-26493.28;;;11.85;100.00
21664;BME280;10993;52.510;13.456;2022-11-09T08:31:44;-26494.22;;;11.88;100.00
21664;BME280;10993;52.510;13.456;2022-11-09T08:36:45;-26493.13;;;11.84;100.00
21664;BME280;10993;52.510;13.456;2022-11-09T08:41:46;-26489.53;;;11.73;100.00
21664;BME280;10993;52.510;13.456;2022-11-09T08:46:46;-26484.97;;;11.58;100.00
21664;BME280;10993;52.510;13.456;2022-11-09T08:51:48;-26495.31;;;11.92;100.00
21664;BME280;10993;52.510;13.456;2022-11-09T08:56:48;-26497.03;;;11.97;100.00
21664;BME280;10993;52.510;13.456;2022-11-09T09:01:49;-26501.13;;;12.11;100.00
21664;BME280;10993;52.510;13.456;2022-11-09T09:06:51;-26502.22;;;12.14;100.00
21664;BME280;10993;52.510;13.456;2022-11-09T09:11:51;-26508.16;;;12.34;100.00
21664;BME280;10993;52.510;13.456;2022-11-09T09:16:52;-26511.44;;;12.45;100.00
21664;BME280;10993;52.510;13.456;2022-11-09T09:21:53;-26518.31;;;12.67;100.00
21664;BME280;10993;52.510;13.456;2022-11-09T09:26:54;-26522.41;;;12.81;100.00
21664;BME280;10993;52.510;13.456;2022-11-09T09:31:54;-26526.31;;;12.94;100.00
21664;BME280;10993;52.510;13.456;2022-11-09T09:36:56;-26533.03;;;13.16;100.00
21664;BME280;10993;52.510;13.456;2022-11-09T09:41:58;-26551.00;;;13.75;100.00
21664;BME280;10993;52.510;13.456;2022-11-09T09:47:06;-26558.31;;;13.99;100.00
21664;BME280;10993;52.510;13.456;2022-11-09T09:52:16;-26555.03;;;13.89;100.00
21664;BME280;10993;52.510;13.456;2022-11-09T09:57:20;-26568.16;;;14.32;100.00
21664;BME280;10993;52.510;13.456;2022-11-09T10:02:23;-26561.13;;;14.09;100.00
21664;BME280;10993;52.510;13.456;2022-11-09T10:07:28;-26569.72;;;14.37;100.00
21664;BME280;10993;52.510;13.456;2022-11-09T10:12:36;-26559.41;;;14.03;100.00
21664;BME280;10993;52.510;13.456;2022-11-09T10:17:47;-26563.78;;;14.17;100.00
21664;BME280;10993;52.510;13.456;2022-11-09T10:23:01;-26580.78;;;14.74;100.00
21664;BME280;10993;52.510;13.456;2022-11-09T10:28:09;-26577.97;;;14.64;100.00
21664;BME280;10993;52.510;13.456;2022-11-09T10:33:14;-26561.75;;;14.11;100.00
21664;BME280;10993;52.510;13.456;2022-11-09T10:38:20;-26558.78;;;14.01;100.00
21664;BME280;10993;52.510;13.456;2022-11-09T10:43:22;-26588.09;;;14.98;100.00
21664;BME280;10993;52.510;13.456;2022-11-09T10:48:30;-26615.03;;;15.87;100.00
21664;BME280;10993;52.510;13.456;2022-11-09T10:53:32;-26671.72;;;17.75;88.12
21664;BME280;10993;52.510;13.456;2022-11-09T10:58:34;-26716.34;;;19.24;75.25
21664;BME280;10993;52.510;13.456;2022-11-09T11:03:35;-26717.28;;;19.27;74.57
21664;BME280;10993;52.510;13.456;2022-11-09T11:08:40;-26690.34;;;18.37;76.81
21664;BME280;10993;52.510;13.456;2022-11-09T11:13:41;-26725.16;;;19.53;72.93
21664;BME280;10993;52.510;13.456;2022-11-09T11:18:44;-26735.50;;;19.88;68.30
21664;BME280;10993;52.510;13.456;2022-11-09T11:24:02;-26760.97;;;20.73;64.81
21664;BME280;10993;52.510;13.456;2022-11-09T11:29:11;-26751.09;;;20.40;65.88
21664;BME280;10993;52.510;13.456;2022-11-09T11:34:16;-26726.38;;;19.57;70.74
21664;BME280;10993;52.510;13.456;2022-11-09T11:39:26;-26712.47;;;19.11;71.81
21664;BME280;10993;52.510;13.456;2022-11-09T11:44:44;-26729.94;;;19.69;72.54
21664;BME280;10993;52.510;13.456;2022-11-09T11:50:04;-26739.06;;;19.99;66.49
21664;BME280;10993;52.510;13.456;2022-11-09T11:55:24;-26719.91;;;19.35;69.81
21664;BME280;10993;52.510;13.456;2022-11-09T12:00:25;-26748.16;;;20.30;66.75
21664;BME280;10993;52.510;13.456;2022-11-09T12:11:21;-26642.88;;;16.79;86.75
21664;BME280;10993;52.510;13.456;2022-11-09T12:16:30;-26631.22;;;16.41;91.28
21664;BME280;10993;52.510;13.456;2022-11-09T12:21:38;-26622.34;;;16.11;93.84
21664;BME280;10993;52.510;13.456;2022-11-09T12:26:50;-26607.09;;;15.61;98.25
21664;BME280;10993;52.510;13.456;2022-11-09T12:31:59;-26603.06;;;15.47;100.00
21664;BME280;10993;52.510;13.456;2022-11-09T12:37:08;-26614.41;;;15.85;98.59
21664;BME280;10993;52.510;13.456;2022-11-09T12:42:16;-26627.00;;;16.27;95.79
21664;BME280;10993;52.510;13.456;2022-11-09T12:47:23;-26628.41;;;16.31;95.38
21664;BME280;10993;52.510;13.456;2022-11-09T12:52:27;-26619.56;;;16.02;97.24
21664;BME280;10993;52.510;13.456;2022-11-09T12:57:30;-26627.31;;;16.28;95.08
21664;BME280;10993;52.510;13.456;2022-11-09T13:02:34;-26625.00;;;16.20;95.23
21664;BME280;10993;52.510;13.456;2022-11-09T13:07:43;-26620.50;;;16.05;96.66
21664;BME280;10993;52.510;13.456;2022-11-09T13:12:47;-26612.09;;;15.77;98.85
21664;BME280;10993;52.510;13.456;2022-11-09T13:17:55;-26610.22;;;15.71;99.68
21664;BME280;10993;52.510;13.456;2022-11-09T13:22:58;-26609.44;;;15.68;100.00
21664;BME280;10993;52.510;13.456;2022-11-09T13:28:00;-26608.19;;;15.64;99.70
21664;BME280;10993;52.510;13.456;2022-11-09T13:33:21;-26607.72;;;15.63;99.96
21664;BME280;10993;52.510;13.456;2022-11-09T13:38:23;-26603.22;;;15.48;99.54
21664;BME280;10993;52.510;13.456;2022-11-09T13:43:28;-26605.56;;;15.56;99.04
21664;BME280;10993;52.510;13.456;2022-11-09T13:48:35;-26600.88;;;15.40;99.99
21664;BME280;10993;52.510;13.456;2022-11-09T13:53:52;-26602.13;;;15.44;100.00
21664;BME280;10993;52.510;13.456;2022-11-09T13:58:57;-26599.94;;;15.37;100.00
21664;BME280;10993;52.510;13.456;2022-11-09T14:03:58;-26597.28;;;15.28;100.00
21664;BME280;10993;52.510;13.456;2022-11-09T14:09:01;-26587.78;;;14.97;100.00
21664;BME280;10993;52.510;13.456;2022-11-09T14:14:13;-26593.41;;;15.15;100.00
21664;BME280;10993;52.510;13.456;2022-11-09T14:19:24;-26589.34;;;15.02;100.00
21664;BME280;10993;52.510;13.456;2022-11-09T14:24:28;-26578.13;;;14.65;100.00
21664;BME280;10993;52.510;13.456;2022-11-09T14:29:34;-26581.41;;;14.76;100.00
21664;BME280;10993;52.510;13.456;2022-11-09T14:34:35;-26578.44;;;14.66;100.00
21664;BME280;10993;52.510;13.456;2022-11-09T14:39:35;-26575.31;;;14.56;100.00
21664;BME280;10993;52.510;13.456;2022-11-09T14:44:42;-26569.09;;;14.35;100.00
21664;BME280;10993;52.510;13.456;2022-11-09T14:49:43;-26570.66;;;14.40;100.00
21664;BME280;10993;52.510;13.456;2022-11-09T14:54:45;-26567.22;;;14.29;100.00
21664;BME280;10993;52.510;13.456;2022-11-09T14:59:48;-26562.84;;;14.14;100.00
21664;BME280;10993;52.510;13.456;2022-11-09T15:04:52;-26532.72;;;13.15;100.00
21664;BME280;10993;52.510;13.456;2022-11-09T15:09:54;-26558.00;;;13.98;100.00
21664;BME280;10993;52.510;13.456;2022-11-09T15:15:00;-26554.13;;;13.85;100.00
21664;BME280;10993;52.510;13.456;2022-11-09T15:20:21;-26551.00;;;13.75;100.00
21664;BME280;10993;52.510;13.456;2022-11-09T15:25:27;-26548.03;;;13.65;100.00
21664;BME280;10993;52.510;13.456;2022-11-09T15:30:32;-26547.88;;;13.65;100.00
21664;BME280;10993;52.510;13.456;2022-11-09T15:35:33;-26543.97;;;13.52;100.00
21664;BME280;10993;52.510;13.456;2022-11-09T15:40:33;-26540.06;;;13.39;100.00
21664;BME280;10993;52.510;13.456;2022-11-09T15:45:35;-26538.03;;;13.32;100.00
21664;BME280;10993;52.510;13.456;2022-11-09T15:50:35;-26537.09;;;13.29;100.00
21664;BME280;10993;52.510;13.456;2022-11-09T15:55:36;-26536.94;;;13.29;100.00
21664;BME280;10993;52.510;13.456;2022-11-09T16:00:37;-26531.63;;;13.11;100.00
21664;BME280;10993;52.510;13.456;2022-11-09T16:05:38;-26525.22;;;12.90;100.00
21664;BME280;10993;52.510;13.456;2022-11-09T16:10:39;-26532.88;;;13.15;100.00
21664;BME280;10993;52.510;13.456;2022-11-09T16:15:41;-26530.06;;;13.06;100.00
21664;BME280;10993;52.510;13.456;2022-11-09T16:20:41;-26528.50;;;13.01;100.00
21664;BME280;10993;52.510;13.456;2022-11-09T16:25:41;-26525.69;;;12.92;100.00
21664;BME280;10993;52.510;13.456;2022-11-09T16:30:45;-26528.81;;;13.02;100.00
21664;BME280;10993;52.510;13.456;2022-11-09T16:35:45;-26526.63;;;12.95;100.00
21664;BME280;10993;52.510;13.456;2022-11-09T16:40:45;-26527.88;;;12.99;100.00
21664;BME280;10993;52.510;13.456;2022-11-09T16:45:48;-26526.78;;;12.95;100.00
21664;BME280;10993;52.510;13.456;2022-11-09T16:50:49;-26523.66;;;12.85;100.00
21664;BME280;10993;52.510;13.456;2022-11-09T16:55:52;-26509.09;;;12.37;100.00
21664;BME280;10993;52.510;13.456;2022-11-09T17:00:54;-26514.88;;;12.56;100.00
21664;BME280;10993;52.510;13.456;2022-11-09T17:05:58;-26515.34;;;12.58;100.00
21664;BME280;10993;52.510;13.456;2022-11-09T17:10:59;-26511.91;;;12.46;100.00
21664;BME280;10993;52.510;13.456;2022-11-09T17:16:07;-26514.09;;;12.53;100.00
21664;BME280;10993;52.510;13.456;2022-11-09T17:21:08;-26511.28;;;12.44;100.00
21664;BME280;10993;52.510;13.456;2022-11-09T17:26:09;-26514.09;;;12.53;100.00
21664;BME280;10993;52.510;13.456;2022-11-09T17:31:13;-26507.06;;;12.30;100.00
21664;BME280;10993;52.510;13.456;2022-11-09T17:36:15;-26508.78;;;12.36;100.00
21664;BME280;10993;52.510;13.456;2022-11-09T17:41:18;-26507.53;;;12.32;100.00
21664;BME280;10993;52.510;13.456;2022-11-09T17:46:20;-26507.06;;;12.30;100.00
21664;BME280;10993;52.510;13.456;2022-11-09T17:51:21;-26506.75;;;12.29;100.00
21664;BME280;10993;52.510;13.456;2022-11-09T17:56:21;-26504.88;;;12.23;100.00
21664;BME280;10993;52.510;13.456;2022-11-09T18:01:23;-26499.41;;;12.05;100.00
21664;BME280;10993;52.510;13.456;2022-11-09T18:06:23;-26503.16;;;12.17;100.00
21664;BME280;10993;52.510;13.456;2022-11-09T18:11:24;-26502.22;;;12.14;100.00
21664;BME280;10993;52.510;13.456;2022-11-09T18:16:26;-26502.84;;;12.16;100.00
21664;BME280;10993;52.510;13.456;2022-11-09T18:21:27;-26506.13;;;12.27;100.00
21664;BME280;10993;52.510;13.456;2022-11-09T18:26:28;-26510.97;;;12.43;100.00
21664;BME280;10993;52.510;13.456;2022-11-09T18:31:31;-26516.59;;;12.62;100.00
21664;BME280;10993;52.510;13.456;2022-11-09T18:36:32;-26513.31;;;12.51;100.00
21664;BME280;10993;52.510;13.456;2022-11-09T18:41:32;-26527.88;;;12.99;100.00
21664;BME280;10993;52.510;13.456;2022-11-09T18:46:34;-26531.63;;;13.11;100.00
21664;BME280;10993;52.510;13.456;2022-11-09T18:51:34;-26532.09;;;13.13;100.00
21664;BME280;10993;52.510;13.456;2022-11-09T18:56:35;-26537.88;;;13.32;100.00
21664;BME280;10993;52.510;13.456;2022-11-09T19:01:37;-26542.25;;;13.46;100.00
21664;BME280;10993;52.510;13.456;2022-11-09T19:06:38;-26542.25;;;13.46;100.00
21664;BME280;10993;52.510;13.456;2022-11-09T19:11:38;-26541.78;;;13.45;100.00
21664;BME280;10993;52.510;13.456;2022-11-09T19:16:40;-26544.44;;;13.53;100.00
21664;BME280;10993;52.510;13.456;2022-11-09T19:21:42;-26544.13;;;13.52;100.00
21664;BME280;10993;52.510;13.456;2022-11-09T19:26:44;-26538.34;;;13.33;100.00
21664;BME280;10993;52.510;13.456;2022-11-09T19:31:46;-26533.66;;;13.18;100.00
21664;BME280;10993;52.510;13.456;2022-11-09T19:36:48;-26522.72;;;12.82;100.00
21664;BME280;10993;52.510;13.456;2022-11-09T19:41:48;-26531.00;;;13.09;100.00
21664;BME280;10993;52.510;13.456;2022-11-09T19:46:50;-26528.66;;;13.01;100.00
21664;BME280;10993;52.510;13.456;2022-11-09T19:51:53;-26529.13;;;13.03;100.00
21664;BME280;10993;52.510;13.456;2022-11-09T19:56:55;-26525.38;;;12.91;100.00
21664;BME280;10993;52.510;13.456;2022-11-09T20:01:57;-26523.78;;;12.85;100.00
21664;BME280;10993;52.510;13.456;2022-11-09T20:06:57;-26519.44;;;12.71;100.00
21664;BME280;10993;52.510;13.456;2022-11-09T20:11:57;-26515.03;;;12.57;100.00
21664;BME280;10993;52.510;13.456;2022-11-09T20:17:18;-26514.09;;;12.53;100.00
21664;BME280;10993;52.510;13.456;2022-11-09T20:22:18;-26512.06;;;12.47;100.00
21664;BME280;10993;52.510;13.456;2022-11-09T20:27:19;-26508.16;;;12.34;100.00
21664;BME280;10993;52.510;13.456;2022-11-09T20:32:21;-26504.25;;;12.21;100.00
21664;BME280;10993;52.510;13.456;2022-11-09T20:37:21;-26506.75;;;12.29;100.00
21664;BME280;10993;52.510;13.456;2022-11-09T20:42:22;-26507.06;;;12.30;100.00
21664;BME280;10993;52.510;13.456;2022-11-09T20:47:23;-26502.69;;;12.16;100.00
21664;BME280;10993;52.510;13.456;2022-11-09T20:52:24;-26502.38;;;12.15;100.00
21664;BME280;10993;52.510;13.456;2022-11-09T20:57:24;-26502.69;;;12.16;100.00
21664;BME280;10993;52.510;13.456;2022-11-09T21:02:26;-26501.28;;;12.11;100.00
21664;BME280;10993;52.510;13.456;2022-11-09T21:07:26;-26500.03;;;12.07;100.00
21664;BME280;10993;52.510;13.456;2022-11-09T21:12:27;-26498.31;;;12.01;100.00
21664;BME280;10993;52.510;13.456;2022-11-09T21:17:30;-26490.63;;;11.76;100.00
21664;BME280;10993;52.510;13.456;2022-11-09T21:22:30;-26498.47;;;12.02;100.00
21664;BME280;10993;52.510;13.456;2022-11-09T21:27:49;-26492.81;;;11.83;100.00
21664;BME280;10993;52.510;13.456;2022-11-09T21:33:09;-26497.22;;;11.98;100.00
21664;BME280;10993;52.510;13.456;2022-11-09T21:38:10;-26497.84;;;12.00;100.00
21664;BME280;10993;52.510;13.456;2022-11-09T21:43:10;-26494.06;;;11.88;100.00
21664;BME280;10993;52.510;13.456;2022-11-09T21:48:12;-26489.69;;;11.73;100.00
21664;BME280;10993;52.510;13.456;2022-11-09T21:53:12;-26499.41;;;12.05;100.00
21664;BME280;10993;52.510;13.456;2022-11-09T21:58:13;-26499.88;;;12.07;100.00
21664;BME280;10993;52.510;13.456;2022-11-09T22:03:15;-26501.13;;;12.11;100.00
21664;BME280;10993;52.510;13.456;2022-11-09T22:08:15;-26504.09;;;12.21;100.00
21664;BME280;10993;52.510;13.456;2022-11-09T22:13:16;-26503.16;;;12.17;100.00
21664;BME280;10993;52.510;13.456;2022-11-09T22:18:36;-26505.03;;;12.24;100.00
21664;BME280;10993;52.510;13.456;2022-11-09T22:23:55;-26507.84;;;12.33;100.00
21664;BME280;10993;52.510;13.456;2022-11-09T22:28:57;-26506.91;;;12.30;100.00
21664;BME280;10993;52.510;13.456;2022-11-09T22:33:58;-26512.06;;;12.47;100.00
21664;BME280;10993;52.510;13.456;2022-11-09T22:38:59;-26512.53;;;12.48;100.00
21664;BME280;10993;52.510;13.456;2022-11-09T22:43:59;-26510.81;;;12.43;100.00
21664;BME280;10993;52.510;13.456;2022-11-09T22:49:01;-26515.19;;;12.57;100.00
21664;BME280;10993;52.510;13.456;2022-11-09T22:54:02;-26514.88;;;12.56;100.00
21664;BME280;10993;52.510;13.456;2022-11-09T22:59:02;-26510.34;;;12.41;100.00
21664;BME280;10993;52.510;13.456;2022-11-09T23:04:04;-26513.00;;;12.50;100.00
21664;BME280;10993;52.510;13.456;2022-11-09T23:09:04;-26511.28;;;12.44;100.00
21664;BME280;10993;52.510;13.456;2022-11-09T23:14:05;-26511.28;;;12.44;100.00
21664;BME280;10993;52.510;13.456;2022-11-09T23:19:06;-26510.34;;;12.41;100.00
21664;BME280;10993;52.510;13.456;2022-11-09T23:24:07;-26513.78;;;12.52;100.00
21664;BME280;10993;52.510;13.456;2022-11-09T23:29:30;-26510.66;;;12.42;100.00
21664;BME280;10993;52.510;13.456;2022-11-09T23:34:32;-26504.09;;;12.21;100.00
21664;BME280;10993;52.510;13.456;2022-11-09T23:39:32;-26504.72;;;12.23;100.00
21664;BME280;10993;52.510;13.456;2022-11-09T23:44:32;-26510.03;;;12.40;100.00
21664;BME280;10993;52.510;13.456;2022-11-09T23:49:34;-26508.47;;;12.35;100.00
21664;BME280;10993;52.510;13.456;2022-11-09T23:54:34;-26507.22;;;12.31;100.00
21664;BME280;10993;52.510;13.456;2022-11-09T23:59:35;-26508.78;;;12.36;100.00
